Portada
METAR-TAF:

METAR-TAF

Aeropuertos :

Aeropuerto Internacional Gengis Kan

Ulán Bator, Mongolia

latitud: 47-55N, longitud: 106-52E, altitud: 1306 m

Observación

El informe se hizo hace 14 minutos, a las 19:00 UTC
Viento 4 kt del este-sureste
Temperatura 8°C
Humedad 76%
Presión 1017 hPa
Visibilidad 10 km o más
sin nubes por debajo de 1500 m y sin presencia de cumulonimbus.

METAR: ZMUB 181900Z 11002MPS CAVOK 08/04 Q1017 NOSIG RMK QFE655.5 76

Hora: 04:14 (19:14 UTC)

Pronóstico

El informe se hizo hace 2 horas y 34 minutos, a las 16:40 UTC
Pronóstico válido del 18 a las 18 UTC al 19 a las 24 UTC
Viento 4 kt con dirección variable
Visibilidad 10 km o más
Escasas nubes a una altura de 3000 ft, Cumulonimbus.
Nubes dispersas a una altura de 3300 ft

TAF: ZMUB 181640Z 1818/1924 VRB02MPS 9999 FEW030CB SCT033 TN06/1821Z TX24/1907Z

Observaciones y pronósticos meteorológicos de más de 4000 aeropuertos (mensajes METAR y TAF).

Los puntos amarillos y rojos representan las estaciones disponibles.

Ponga el ratón en el punto deseado para ver el nombre de la estación.

Haga clic para ver las observaciones y los pronósticos meteorológicos.

Para cambiar el mapa : haga clic en los botones verdes con una cruz de color negro para hacer un zoom, en el botón verde con un guión para alejar o en las flechas verdes para mapas adyacentes.


METAR-TAF: